Time;durP1;ratioP1;P1;durP2;ratioP2;P2;SDS_P1;SDS_P2;PMS_P1;PMS_P2;Temp;Humidity;BMP_temperature;BMP_pressure;BME280_temperature;BME280_humidity;BME280_pressure;Samples;Min_cycle;Max_cycle;Signal;HPM_P1;HPM_P2
2022/01/24 00:00:31;;;;;;;62.13;26.47;;;;;;;-7.30;73.63;100642.05;2123334;83;20991;-81
2022/01/24 00:03:34;;;;;;;57.60;25.03;;;;;;;-7.34;73.19;100644.61;2102794;82;21071;-81
2022/01/24 00:06:35;;;;;;;67.43;27.80;;;;;;;-7.39;73.35;100645.74;2148633;82;21025;-82
2022/01/24 00:09:35;;;;;;;64.53;25.33;;;;;;;-7.37;73.88;100649.72;2169919;81;20999;-81
2022/01/24 00:12:47;;;;;;;64.77;26.70;;;;;;;-7.36;73.79;100646.08;2130760;83;21402;-81
2022/01/24 00:15:55;;;;;;;62.70;27.00;;;;;;;-7.38;73.88;100648.81;2134622;82;21443;-82
2022/01/24 00:28:35;;;;;;;80.00;28.70;;;;;;;-7.41;74.18;100654.45;2133117;82;21080;-81
2022/01/24 00:31:36;;;;;;;62.87;26.73;;;;;;;-7.43;73.82;100647.41;2140811;82;21007;-82
2022/01/24 00:34:36;;;;;;;55.63;23.60;;;;;;;-7.48;73.68;100657.05;2167288;82;21026;-80
2022/01/24 00:37:37;;;;;;;57.90;24.30;;;;;;;-7.51;73.66;100668.13;2130516;83;21038;-80
2022/01/24 00:40:40;;;;;;;58.70;26.40;;;;;;;-7.54;73.58;100660.54;2168972;82;21168;-82
2022/01/24 00:44:01;;;;;;;56.70;25.20;;;;;;;-7.58;73.53;100658.39;2162359;82;21024;-82
2022/01/24 00:46:52;;;;;;;54.37;23.27;;;;;;;-7.60;73.55;100653.52;2155293;82;21072;-82
2022/01/24 00:53:11;;;;;;;57.43;23.27;;;;;;;-7.63;73.46;100650.28;2163301;82;21083;-82
2022/01/24 00:53:12;;;;;;;64.40;25.60;;;;;;;-7.67;73.21;100652.30;2162931;82;21356;-81
2022/01/24 00:56:01;;;;;;;64.80;26.87;;;;;;;-7.74;72.71;100645.66;2161459;82;20949;-82
2022/01/24 00:59:04;;;;;;;60.53;24.33;;;;;;;-7.82;72.50;100648.94;2125646;83;20971;-81
2022/01/24 01:02:04;;;;;;;66.23;25.97;;;;;;;-7.89;72.33;100649.88;2143118;82;21376;-81
2022/01/24 01:05:58;;;;;;;54.27;25.00;;;;;;;-7.98;72.19;100647.95;2151470;82;21447;-82
2022/01/24 01:18:15;;;;;;;58.87;24.57;;;;;;;-8.15;72.85;100652.39;2143761;82;21044;-82
2022/01/24 01:21:10;;;;;;;71.87;25.53;;;;;;;-8.16;72.88;100656.92;2128415;82;21000;-82
2022/01/24 01:24:10;;;;;;;66.67;27.17;;;;;;;-8.17;72.97;100653.84;2139738;82;20998;-82
2022/01/24 01:27:18;;;;;;;61.53;24.10;;;;;;;-8.17;73.04;100658.91;2115885;82;20981;-82
2022/01/24 01:30:20;;;;;;;63.07;24.17;;;;;;;-8.19;72.96;100660.01;2149129;82;21386;-82
2022/01/24 01:33:35;;;;;;;59.90;24.67;;;;;;;-8.23;72.63;100669.25;2114985;84;21077;-82
2022/01/24 01:39:51;;;;;;;52.87;21.60;;;;;;;-8.38;72.60;100670.08;2127410;82;20987;-83
2022/01/24 01:52:42;;;;;;;56.57;23.50;;;;;;;-8.38;72.88;100676.05;2207020;80;21007;-82
2022/01/24 01:55:39;;;;;;;55.40;22.43;;;;;;;-8.44;72.70;100669.02;2220323;80;21392;-82
2022/01/24 01:58:39;;;;;;;51.37;21.48;;;;;;;-8.45;72.58;100674.81;2219886;80;21087;-82
2022/01/24 02:01:40;;;;;;;58.00;23.37;;;;;;;-8.49;72.70;100674.28;2225022;80;21285;-82
2022/01/24 02:04:40;;;;;;;62.40;23.43;;;;;;;-8.48;73.21;100666.86;2214938;80;21364;-82
2022/01/24 02:07:41;;;;;;;59.37;23.83;;;;;;;-8.44;73.12;100674.45;2219209;80;21007;-82
2022/01/24 02:10:43;;;;;;;57.50;22.93;;;;;;;-8.43;72.78;100678.78;2224990;80;20987;-82
2022/01/24 02:13:43;;;;;;;62.37;23.77;;;;;;;-8.50;72.00;100680.98;2218850;80;20955;-82
2022/01/24 02:20:03;;;;;;;52.27;21.07;;;;;;;-8.58;72.54;100679.20;2149298;81;21398;-82
2022/01/24 02:23:01;;;;;;;55.03;22.20;;;;;;;-8.59;72.48;100677.39;2138513;82;21052;-82
2022/01/24 02:25:51;;;;;;;58.63;24.20;;;;;;;-8.61;72.36;100675.05;2212609;80;21471;-82
2022/01/24 02:28:59;;;;;;;52.90;22.70;;;;;;;-8.61;72.46;100669.98;2211589;80;20995;-82
2022/01/24 02:31:55;;;;;;;55.10;23.27;;;;;;;-8.65;72.10;100665.30;2211386;80;21098;-83
2022/01/24 02:34:56;;;;;;;59.77;24.07;;;;;;;-8.73;71.99;100666.91;2224846;80;21049;-82
2022/01/24 02:38:00;;;;;;;65.00;25.47;;;;;;;-8.76;72.23;100670.35;2218032;80;21413;-83
2022/01/24 02:54:17;;;;;;;55.70;22.33;;;;;;;-8.88;72.05;100679.42;2140349;82;21018;-83
2022/01/24 02:57:19;;;;;;;59.73;22.93;;;;;;;-8.92;72.13;100681.05;2139891;82;20956;-83
2022/01/24 03:00:19;;;;;;;60.53;23.53;;;;;;;-8.93;72.18;100684.31;2168739;81;21493;-83
2022/01/24 03:03:20;;;;;;;62.13;24.33;;;;;;;-8.95;71.79;100678.17;2131337;83;21043;-83
2022/01/24 03:06:20;;;;;;;64.17;23.53;;;;;;;-9.01;71.62;100687.22;2141741;82;20973;-83
2022/01/24 03:09:24;;;;;;;69.93;24.30;;;;;;;-9.05;71.74;100687.22;2139541;82;20977;-83
2022/01/24 03:12:43;;;;;;;60.00;23.97;;;;;;;-9.07;72.13;100692.83;2138093;82;20992;-81
2022/01/24 03:15:42;;;;;;;58.47;23.33;;;;;;;-9.04;72.21;100691.55;2131045;82;21284;-83
2022/01/24 03:18:42;;;;;;;67.20;24.63;;;;;;;-9.02;72.52;100696.44;2136553;82;21397;-80
2022/01/24 03:21:43;;;;;;;57.50;23.87;;;;;;;-9.02;72.29;100697.70;2167917;82;20955;-83
2022/01/24 03:24:45;;;;;;;60.90;22.00;;;;;;;-9.00;72.50;100698.78;2131233;83;21023;-83
2022/01/24 03:27:46;;;;;;;53.83;20.90;;;;;;;-8.95;72.64;100695.88;2167824;82;21035;-80
2022/01/24 03:30:46;;;;;;;59.53;23.60;;;;;;;-8.95;72.35;100696.78;2131106;83;20987;-83
2022/01/24 03:33:47;;;;;;;59.17;23.60;;;;;;;-8.96;72.00;100700.41;2168233;82;20998;-83
2022/01/24 03:36:47;;;;;;;68.80;24.00;;;;;;;-8.94;71.98;100710.34;2132479;83;20963;-83
2022/01/24 03:39:48;;;;;;;62.17;23.87;;;;;;;-8.93;72.18;100710.88;2168615;81;21014;-83
2022/01/24 03:42:48;;;;;;;64.57;25.03;;;;;;;-8.91;72.37;100711.60;2133220;83;21039;-83
2022/01/24 03:46:09;;;;;;;67.47;24.13;;;;;;;-8.92;72.06;100703.47;2134816;82;20994;-83
2022/01/24 03:48:54;;;;;;;66.10;25.33;;;;;;;-8.91;71.76;100706.91;2164264;81;21222;-83
2022/01/24 03:51:53;;;;;;;70.73;26.40;;;;;;;-8.95;71.88;100704.38;2132640;83;21021;-83
2022/01/24 03:54:53;;;;;;;70.57;25.27;;;;;;;-8.96;71.62;100701.67;2169196;81;20999;-83
2022/01/24 03:57:54;;;;;;;60.70;24.40;;;;;;;-9.00;71.64;100711.80;2156869;82;21006;-82
2022/01/24 04:00:55;;;;;;;60.13;22.87;;;;;;;-9.05;71.61;100712.52;2149391;82;21047;-83
2022/01/24 04:03:56;;;;;;;68.20;24.13;;;;;;;-9.05;71.52;100712.52;2135597;82;21079;-82
2022/01/24 04:06:56;;;;;;;63.73;22.83;;;;;;;-9.09;71.27;100715.41;2136586;82;21036;-83
2022/01/24 04:10:01;;;;;;;65.73;24.80;;;;;;;-9.11;71.55;100712.16;2128850;82;21019;-83
2022/01/24 04:13:08;;;;;;;63.47;24.03;;;;;;;-9.19;71.70;100716.33;2132289;82;21060;-84
2022/01/24 04:16:23;;;;;;;77.27;28.05;;;;;;;-9.16;72.44;100710.36;2122588;82;20989;-82
2022/01/24 04:21:19;;;;;;;63.13;24.07;;;;;;;-9.08;72.76;100711.26;2142290;82;21092;-83
2022/01/24 04:22:34;;;;;;;69.40;26.23;;;;;;;-9.00;72.22;100713.06;2124576;82;21040;-81
2022/01/24 04:25:33;;;;;;;67.55;26.05;;;;;;;-9.04;71.85;100717.22;2106224;82;21047;-82
2022/01/24 04:28:34;;;;;;;67.73;24.57;;;;;;;-9.03;72.08;100719.92;2142308;82;20995;-82
2022/01/24 04:31:34;;;;;;;61.23;23.50;;;;;;;-9.05;71.97;100707.82;2152381;82;21420;-82
2022/01/24 04:34:35;;;;;;;80.53;27.10;;;;;;;-9.09;71.84;100704.39;2146089;82;21101;-83
2022/01/24 04:37:35;;;;;;;70.23;23.77;;;;;;;-9.11;71.99;100706.74;2168185;81;21012;-82
2022/01/24 04:40:36;;;;;;;70.73;27.00;;;;;;;-9.07;72.56;100706.74;2128627;83;21058;-83
2022/01/24 04:43:52;;;;;;;76.33;26.87;;;;;;;-8.84;74.54;100702.73;2168830;81;21022;-82
2022/01/24 04:46:50;;;;;;;69.90;28.33;;;;;;;-8.69;74.23;100707.41;2132497;82;21030;-82
2022/01/24 04:53:09;;;;;;;80.80;29.00;;;;;;;-8.59;74.19;100693.85;2175894;82;21481;-83
2022/01/24 04:56:05;;;;;;;78.57;30.30;;;;;;;-8.60;73.58;100700.00;2121693;83;21025;-82
2022/01/24 04:59:05;;;;;;;82.20;30.23;;;;;;;-8.60;74.15;100696.20;2168432;81;20956;-82
2022/01/24 05:02:06;;;;;;;75.20;28.67;;;;;;;-8.57;73.62;100692.76;2130850;83;21038;-82
2022/01/24 05:05:07;;;;;;;70.23;29.10;;;;;;;-8.51;74.30;100704.50;2168322;82;21027;-81
2022/01/24 05:08:09;;;;;;;80.97;28.90;;;;;;;-8.45;74.41;100701.41;2129755;83;21026;-81
2022/01/24 05:11:14;;;;;;;78.43;28.17;;;;;;;-8.47;73.71;100715.52;2169749;81;21047;-82
2022/01/24 05:24:08;;;;;;;75.60;28.80;;;;;;;-8.58;73.36;100718.45;2129581;83;21050;-82
2022/01/24 05:27:09;;;;;;;71.77;28.00;;;;;;;-8.62;73.05;100719.18;2168129;81;21059;-81
2022/01/24 05:30:09;;;;;;;63.87;24.40;;;;;;;-8.69;73.04;100729.83;2130918;82;21364;-83
2022/01/24 05:33:10;;;;;;;76.13;29.57;;;;;;;-8.67;72.84;100735.06;2127268;82;20988;-83
2022/01/24 05:36:10;;;;;;;79.27;28.70;;;;;;;-8.72;72.67;100739.59;2124810;82;21036;-80
2022/01/24 05:39:11;;;;;;;69.37;26.27;;;;;;;-8.73;72.93;100740.32;2121629;82;21328;-82
2022/01/24 05:42:11;;;;;;;77.50;30.13;;;;;;;-8.73;72.55;100744.48;2129007;82;20993;-82
2022/01/24 05:45:12;;;;;;;71.50;27.13;;;;;;;-8.79;72.24;100750.09;2121737;83;21004;-79
2022/01/24 05:48:13;;;;;;;83.20;29.03;;;;;;;-8.85;72.13;100750.64;2127934;83;20995;-83
2022/01/24 05:51:13;;;;;;;67.27;27.07;;;;;;;-8.91;72.41;100754.63;2151787;82;20997;-83
2022/01/24 05:54:14;;;;;;;74.53;27.40;;;;;;;-8.89;72.86;100750.64;2158563;82;21029;-80
2022/01/24 05:57:14;;;;;;;81.17;30.47;;;;;;;-8.91;72.90;100760.95;2142654;82;21004;-80
2022/01/24 06:00:15;;;;;;;72.27;28.97;;;;;;;-8.89;73.03;100767.09;2116976;82;20957;-80
2022/01/24 06:03:15;;;;;;;79.23;28.70;;;;;;;-8.85;72.94;100767.09;2140536;82;21017;-81
2022/01/24 06:06:16;;;;;;;82.13;29.37;;;;;;;-8.83;73.08;100776.67;2139037;82;20996;-81
2022/01/24 06:09:16;;;;;;;84.93;33.23;;;;;;;-8.82;72.80;100773.78;2137356;82;20970;-80
2022/01/24 06:12:17;;;;;;;84.60;32.20;;;;;;;-8.79;73.35;100765.28;2152784;81;20970;-79
2022/01/24 06:15:17;;;;;;;81.57;31.67;;;;;;;-8.72;73.30;100769.07;2134014;82;20962;-81
2022/01/24 06:18:18;;;;;;;83.23;31.47;;;;;;;-8.71;73.20;100775.94;2117154;82;20977;-80
2022/01/24 06:21:18;;;;;;;79.77;31.97;;;;;;;-8.68;73.16;100763.64;2133791;82;21002;-79
2022/01/24 06:24:19;;;;;;;80.80;30.27;;;;;;;-8.63;72.70;100776.87;2162724;82;20932;-80
2022/01/24 06:27:19;;;;;;;81.77;33.03;;;;;;;-8.62;72.59;100775.78;2127159;83;20972;-81
2022/01/24 06:30:20;;;;;;;81.17;32.67;;;;;;;-8.62;72.89;100774.52;2167305;82;20994;-81
2022/01/24 06:33:21;;;;;;;80.63;32.97;;;;;;;-8.59;73.15;100783.73;2132361;82;20965;-78
2022/01/24 06:36:21;;;;;;;80.90;32.93;;;;;;;-8.55;72.96;100777.04;2139378;82;21002;-80
2022/01/24 06:39:22;;;;;;;179.40;71.77;;;;;;;-8.51;73.00;100784.62;2131039;82;21016;-81
2022/01/24 06:42:23;;;;;;;91.70;38.67;;;;;;;-8.49;72.48;100794.20;2133795;82;21001;-80
2022/01/24 06:45:23;;;;;;;89.33;34.83;;;;;;;-8.48;72.70;100792.22;2145923;82;20970;-80
2022/01/24 06:48:24;;;;;;;92.43;36.10;;;;;;;-8.47;72.22;100797.83;2167131;82;20947;-80
2022/01/24 06:51:24;;;;;;;89.87;34.97;;;;;;;-8.49;72.22;100797.11;2130303;83;20939;-80
2022/01/24 06:54:25;;;;;;;95.60;33.93;;;;;;;-8.49;72.36;100799.28;2166855;82;20975;-80
2022/01/24 06:57:25;;;;;;;86.90;31.70;;;;;;;-8.41;71.82;100797.27;2128727;83;21058;-81
2022/01/24 07:00:26;;;;;;;79.53;33.67;;;;;;;-8.41;71.67;100799.80;2169803;81;20998;-81
2022/01/24 07:03:28;;;;;;;86.70;34.80;;;;;;;-8.38;71.88;100801.79;2145289;83;21356;-81
2022/01/24 07:06:35;;;;;;;92.53;36.00;;;;;;;-8.34;71.52;100803.95;2167981;81;21470;-81
2022/01/24 07:09:35;;;;;;;94.53;35.50;;;;;;;-8.25;71.92;100812.95;2161212;82;21012;-80
2022/01/24 07:12:36;;;;;;;88.70;34.87;;;;;;;-8.20;71.40;100811.84;2205017;80;21003;-81
2022/01/24 07:15:45;;;;;;;91.53;35.47;;;;;;;-8.17;71.53;100816.00;2214114;80;21429;-80
2022/01/24 07:22:00;;;;;;;85.00;31.73;;;;;;;-7.96;71.73;100811.23;2213053;80;21022;-80
2022/01/24 07:25:01;;;;;;;89.80;35.03;;;;;;;-7.86;71.55;100813.73;2220121;80;20959;-80
2022/01/24 07:28:01;;;;;;;95.83;36.33;;;;;;;-7.76;71.81;100813.18;2216550;80;20956;-79
2022/01/24 07:31:05;;;;;;;96.63;36.67;;;;;;;-7.58;72.39;100808.03;2216393;80;20995;-79
2022/01/24 07:34:05;;;;;;;94.93;36.33;;;;;;;-7.38;72.52;100804.84;2218608;80;21671;-81
2022/01/24 07:37:06;;;;;;;99.87;39.03;;;;;;;-7.18;72.53;100805.44;2220164;80;21038;-80
2022/01/24 07:40:08;;;;;;;86.87;36.83;;;;;;;-6.96;72.40;100805.28;2216169;80;21030;-82
2022/01/24 07:43:10;;;;;;;93.07;38.53;;;;;;;-6.77;72.34;100799.00;2220128;80;21087;-80
2022/01/24 07:46:10;;;;;;;98.23;39.57;;;;;;;-6.52;72.24;100812.38;2169832;81;21151;-81
2022/01/24 07:49:12;;;;;;;155.03;68.23;;;;;;;-6.25;72.44;100805.95;2129030;83;20995;-79
2022/01/24 07:52:13;;;;;;;95.20;40.07;;;;;;;-5.99;72.29;100798.25;2167342;81;21043;-81
2022/01/24 07:55:13;;;;;;;91.20;40.53;;;;;;;-5.74;72.02;100807.19;2120039;83;21003;-81
2022/01/24 07:58:13;;;;;;;93.43;39.63;;;;;;;-5.49;72.03;100805.23;2128374;82;21032;-82
2022/01/24 08:01:14;;;;;;;97.50;41.30;;;;;;;-5.27;72.17;100801.64;2127297;82;20960;-81
2022/01/24 08:04:15;;;;;;;102.50;42.80;;;;;;;-5.00;72.02;100797.64;2129006;82;21416;-81
2022/01/24 08:07:15;;;;;;;91.20;41.40;;;;;;;-4.75;71.95;100798.15;2135711;82;21996;-80
2022/01/24 08:10:16;;;;;;;91.50;41.63;;;;;;;-4.49;71.90;100795.70;2153166;82;21370;-80
2022/01/24 08:13:16;;;;;;;87.13;38.87;;;;;;;-4.26;71.61;100800.23;2132152;82;21389;-80
2022/01/24 08:16:17;;;;;;;102.67;41.80;;;;;;;-4.06;71.53;100801.33;2135887;82;20948;-79
2022/01/24 08:19:18;;;;;;;88.03;38.97;;;;;;;-3.87;71.63;100794.38;2121554;83;21009;-80
2022/01/24 08:22:18;;;;;;;88.73;40.83;;;;;;;-3.65;70.85;100791.39;2146264;82;20970;-80
2022/01/24 08:25:19;;;;;;;87.57;43.23;;;;;;;-3.44;71.39;100787.52;2129863;82;20965;-80
2022/01/24 08:28:19;;;;;;;89.97;40.33;;;;;;;-3.17;71.08;100790.55;2127715;83;20986;-81
2022/01/24 08:31:20;;;;;;;77.27;39.03;;;;;;;-2.95;71.10;100781.26;2167999;81;21609;-81
2022/01/24 08:34:20;;;;;;;82.30;36.57;;;;;;;-2.76;70.85;100787.73;2134840;83;21034;-80
2022/01/24 08:37:21;;;;;;;84.70;40.17;;;;;;;-2.61;70.62;100780.23;2157622;82;21055;-80
2022/01/24 08:40:25;;;;;;;84.17;40.07;;;;;;;-2.43;70.74;100779.81;2114372;83;21066;-80
2022/01/24 08:43:38;;;;;;;92.77;43.60;;;;;;;-2.21;70.52;100780.14;2167215;81;21023;-82
2022/01/24 08:46:26;;;;;;;91.40;42.63;;;;;;;-2.06;70.18;100773.88;2222296;80;21010;-82
2022/01/24 08:49:27;;;;;;;84.97;41.53;;;;;;;-1.85;69.56;100771.48;2210112;80;21327;-82
2022/01/24 08:52:27;;;;;;;99.50;42.90;;;;;;;-1.69;69.76;100773.04;2219593;80;21408;-81
2022/01/24 08:55:28;;;;;;;95.37;41.17;;;;;;;-1.43;69.67;100775.38;2215877;80;21363;-78
2022/01/24 08:58:28;;;;;;;89.57;40.93;;;;;;;-1.24;69.11;100766.38;2214758;80;21674;-81
2022/01/24 09:01:29;;;;;;;92.63;42.37;;;;;;;-1.08;68.08;100766.07;2217354;80;20980;-81
2022/01/24 09:04:29;;;;;;;99.60;45.27;;;;;;;-0.87;68.38;100763.20;2218770;80;21011;-80
2022/01/24 09:10:32;;;;;;;92.17;43.00;;;;;;;-0.52;67.69;100759.48;2213790;80;20987;-81
2022/01/24 09:13:33;;;;;;;88.67;42.17;;;;;;;-0.43;67.45;100766.68;2219620;80;21453;-80
2022/01/24 09:16:33;;;;;;;101.43;46.07;;;;;;;-0.34;66.50;100775.55;2226837;80;21062;-80
2022/01/24 09:19:34;;;;;;;97.10;45.10;;;;;;;-0.20;66.66;100768.63;2221477;80;20968;-80
2022/01/24 09:22:35;;;;;;;86.73;42.00;;;;;;;-0.04;66.63;100769.53;2225493;80;20975;-79
2022/01/24 09:25:35;;;;;;;80.13;39.20;;;;;;;0.05;65.91;100770.34;2223365;80;21409;-82
2022/01/24 09:28:36;;;;;;;84.33;43.30;;;;;;;0.20;66.04;100768.15;2216287;80;21411;-81
2022/01/24 09:31:36;;;;;;;76.37;38.67;;;;;;;0.34;66.08;100752.20;2220764;80;21561;-81
2022/01/24 09:34:37;;;;;;;77.93;39.70;;;;;;;0.50;65.76;100752.69;2219913;80;21010;-81
2022/01/24 09:37:37;;;;;;;69.40;36.77;;;;;;;0.64;65.15;100761.12;2218108;80;21006;-81
2022/01/24 09:40:38;;;;;;;66.70;36.20;;;;;;;0.79;64.80;100761.86;2222630;80;20967;-82
2022/01/24 09:43:39;;;;;;;82.17;41.73;;;;;;;0.79;63.15;100753.76;2220003;80;21046;-81
2022/01/24 09:46:44;;;;;;;66.70;33.03;;;;;;;0.87;63.77;100749.27;2219585;80;20948;-81
2022/01/24 09:49:44;;;;;;;211.93;62.37;;;;;;;0.97;63.64;100749.23;2215523;80;21097;-81
2022/01/24 09:52:45;;;;;;;71.67;33.63;;;;;;;1.01;62.36;100739.69;2219929;80;20944;-81
2022/01/24 09:55:46;;;;;;;69.30;31.57;;;;;;;1.03;61.76;100739.81;2217801;80;21885;-82
2022/01/24 09:58:46;;;;;;;63.47;30.53;;;;;;;0.99;61.20;100740.34;2216355;80;21391;-81
2022/01/24 10:01:47;;;;;;;99.33;39.00;;;;;;;0.93;61.54;100742.04;2218669;80;21328;-81
2022/01/24 10:04:47;;;;;;;105.67;41.77;;;;;;;0.99;61.99;100745.10;2226428;80;21334;-82
2022/01/24 10:07:48;;;;;;;64.97;32.53;;;;;;;1.12;61.72;100742.72;2221746;80;21031;-83
2022/01/24 10:10:49;;;;;;;59.07;31.50;;;;;;;1.21;61.88;100739.59;2220310;80;20955;-83
2022/01/24 10:17:08;;;;;;;51.23;28.80;;;;;;;1.50;61.70;100735.42;2220593;80;21023;-82
2022/01/24 10:20:09;;;;;;;59.33;29.70;;;;;;;1.66;61.43;100733.64;2219515;80;21347;-83
2022/01/24 10:23:09;;;;;;;63.83;30.40;;;;;;;1.75;61.13;100731.81;2221394;80;20947;-82
2022/01/24 10:26:11;;;;;;;65.87;32.73;;;;;;;1.90;61.09;100725.25;2227354;80;20947;-81
2022/01/24 10:29:12;;;;;;;51.77;28.83;;;;;;;2.05;60.64;100719.45;2218602;80;20995;-83
2022/01/24 10:32:12;;;;;;;50.20;29.07;;;;;;;2.13;60.53;100712.80;2220779;80;20975;-82
2022/01/24 10:35:15;;;;;;;50.50;27.73;;;;;;;2.13;59.94;100707.66;2214015;80;21009;-82
2022/01/24 10:38:20;;;;;;;59.60;30.40;;;;;;;2.06;59.89;100704.51;2224134;80;21015;-83
2022/01/24 10:41:28;;;;;;;46.57;25.30;;;;;;;2.01;59.59;100700.30;2220781;80;21531;-82
2022/01/24 10:44:25;;;;;;;53.93;27.83;;;;;;;2.01;57.79;100702.88;2218212;80;21007;-83
2022/01/24 10:47:28;;;;;;;54.50;30.30;;;;;;;2.02;59.39;100697.33;2214909;80;21390;-79
2022/01/24 10:50:28;;;;;;;74.50;36.80;;;;;;;2.11;59.30;100694.16;2224373;80;21030;-83
2022/01/24 10:53:29;;;;;;;54.90;27.03;;;;;;;2.19;59.03;100686.59;2217901;80;20959;-83
2022/01/24 10:56:29;;;;;;;46.40;25.77;;;;;;;2.21;58.79;100687.61;2220261;80;21007;-83
2022/01/24 10:59:30;;;;;;;56.37;28.80;;;;;;;2.19;57.37;100678.48;2212666;80;21421;-82
2022/01/24 11:02:30;;;;;;;49.17;26.00;;;;;;;2.12;58.20;100678.81;2221344;80;21363;-83
2022/01/24 11:05:31;;;;;;;80.33;29.90;;;;;;;2.10;57.67;100683.34;2220318;80;21344;-82
2022/01/24 11:08:31;;;;;;;49.17;25.53;;;;;;;2.09;58.22;100684.13;2223303;80;21411;-83
2022/01/24 11:11:32;;;;;;;49.70;27.40;;;;;;;2.13;57.90;100678.03;2221409;80;21351;-83
2022/01/24 11:14:32;;;;;;;44.17;25.00;;;;;;;2.21;58.00;100678.59;2224696;80;20936;-83
2022/01/24 11:17:34;;;;;;;38.10;23.27;;;;;;;2.26;57.69;100680.22;2220593;80;20999;-83
2022/01/24 11:20:35;;;;;;;40.77;22.77;;;;;;;2.28;57.57;100691.14;2227547;80;21030;-83
2022/01/24 11:23:40;;;;;;;38.43;21.70;;;;;;;2.34;57.53;100688.12;2218773;80;20975;-84
2022/01/24 11:26:38;;;;;;;38.60;23.00;;;;;;;2.35;57.27;100687.34;2168277;82;21039;-82
2022/01/24 11:29:38;;;;;;;38.00;21.80;;;;;;;2.32;57.50;100685.83;2129346;83;21046;-83
2022/01/24 11:32:40;;;;;;;39.50;24.93;;;;;;;2.44;57.20;100680.28;2169216;81;20967;-83
2022/01/24 11:35:43;;;;;;;36.43;20.97;;;;;;;2.37;56.45;100690.53;2143451;82;21083;-82
2022/01/24 11:38:43;;;;;;;32.80;21.03;;;;;;;2.35;56.69;100680.50;2140805;82;20966;-82
2022/01/24 11:41:45;;;;;;;36.10;20.67;;;;;;;2.49;56.99;100681.51;2166012;81;21061;-83
2022/01/24 11:44:45;;;;;;;51.23;26.23;;;;;;;2.62;56.60;100675.59;2122687;82;20984;-83
2022/01/24 11:47:46;;;;;;;47.30;26.40;;;;;;;2.69;56.57;100668.80;2116360;84;21036;-83
2022/01/24 11:50:46;;;;;;;56.90;30.73;;;;;;;2.75;56.00;100665.38;2120905;83;21027;-84
2022/01/24 11:53:48;;;;;;;31.00;21.13;;;;;;;2.83;56.03;100671.97;2119997;83;21000;-83
2022/01/24 11:56:51;;;;;;;37.93;21.37;;;;;;;2.85;55.38;100666.14;2131244;83;21305;-84
2022/01/24 11:59:51;;;;;;;43.97;21.77;;;;;;;2.89;55.23;100660.80;2125098;83;21016;-82
2022/01/24 12:02:52;;;;;;;36.50;21.23;;;;;;;2.94;55.14;100655.57;2133738;82;21348;-83
2022/01/24 12:05:53;;;;;;;33.50;19.53;;;;;;;2.98;55.47;100655.39;2134747;82;20988;-84
2022/01/24 12:08:54;;;;;;;34.77;19.77;;;;;;;3.01;55.34;100657.80;2123508;83;21025;-81
2022/01/24 12:11:54;;;;;;;31.70;19.13;;;;;;;2.96;54.18;100653.10;2151389;82;20974;-84
2022/01/24 12:14:55;;;;;;;36.23;19.63;;;;;;;2.86;54.38;100648.58;2142160;82;21051;-82
2022/01/24 12:17:57;;;;;;;36.03;20.77;;;;;;;2.84;55.01;100637.27;2118221;83;21020;-83
2022/01/24 12:20:57;;;;;;;32.47;21.30;;;;;;;2.90;54.81;100641.95;2121583;83;21117;-83
2022/01/24 12:23:58;;;;;;;38.63;22.27;;;;;;;2.88;55.03;100642.24;2119632;83;21407;-84
2022/01/24 12:26:59;;;;;;;38.23;22.10;;;;;;;2.80;55.05;100642.09;2120566;83;21588;-83
2022/01/24 12:29:59;;;;;;;34.73;19.57;;;;;;;2.80;54.17;100640.80;2138133;82;21414;-80
2022/01/24 12:33:02;;;;;;;39.30;23.77;;;;;;;2.69;54.53;100645.59;2117260;82;21048;-83
2022/01/24 12:36:02;;;;;;;38.27;22.87;;;;;;;2.64;54.24;100639.21;2133546;83;21001;-82
2022/01/24 12:39:02;;;;;;;55.73;24.93;;;;;;;2.66;55.08;100647.95;2133442;82;21534;-82
2022/01/24 12:42:06;;;;;;;41.60;21.10;;;;;;;2.75;54.86;100643.06;2120028;82;20968;-83
2022/01/24 12:48:24;;;;;;;48.03;26.63;;;;;;;2.79;54.59;100636.44;2121179;83;20985;-83
2022/01/24 12:51:25;;;;;;;40.77;24.47;;;;;;;2.69;54.63;100633.59;2139438;82;21676;-84
2022/01/24 12:54:25;;;;;;;36.77;20.87;;;;;;;2.65;54.97;100639.72;2143079;82;20974;-83
2022/01/24 12:57:37;;;;;;;43.57;24.90;;;;;;;2.55;54.50;100633.87;2124592;82;20995;-83
2022/01/24 13:00:34;;;;;;;45.57;24.53;;;;;;;2.45;54.87;100635.67;2198333;80;21012;-80
2022/01/24 13:03:34;;;;;;;50.33;26.67;;;;;;;2.24;55.07;100629.47;2208358;80;20995;-82
2022/01/24 13:06:35;;;;;;;45.83;25.50;;;;;;;2.13;55.14;100623.03;2203092;80;21051;-83
2022/01/24 13:09:35;;;;;;;50.60;26.97;;;;;;;2.06;55.28;100624.26;2203872;80;20979;-81
2022/01/24 13:12:36;;;;;;;44.23;24.90;;;;;;;2.00;55.66;100619.05;2211233;80;20995;-81
2022/01/24 13:22:14;;;;;;;37.80;22.43;;;;;;;2.00;56.22;100622.91;2213714;80;20972;-83
2022/01/24 13:25:15;;;;;;;44.20;22.80;;;;;;;2.01;56.05;100620.84;2210733;80;20990;-83
2022/01/24 13:28:19;;;;;;;41.90;22.80;;;;;;;1.95;54.89;100619.10;2214667;80;20968;-82
2022/01/24 13:31:17;;;;;;;44.67;24.33;;;;;;;1.80;55.71;100605.98;2212640;80;21385;-82
2022/01/24 13:34:18;;;;;;;46.83;24.47;;;;;;;1.71;55.99;100617.75;2219702;80;20964;-83
2022/01/24 13:37:18;;;;;;;41.70;24.13;;;;;;;1.66;56.20;100612.66;2221891;80;21014;-82
2022/01/24 13:40:19;;;;;;;42.13;24.30;;;;;;;1.63;56.48;100611.53;2218959;80;20988;-84
2022/01/24 13:43:19;;;;;;;41.50;22.53;;;;;;;1.62;56.38;100600.72;2217206;80;21387;-82
2022/01/24 13:46:22;;;;;;;39.70;22.23;;;;;;;1.58;56.37;100608.61;2218310;80;21358;-83
2022/01/24 13:49:22;;;;;;;44.40;22.87;;;;;;;1.54;56.12;100600.16;2221670;80;21598;-82
2022/01/24 13:52:23;;;;;;;42.93;23.67;;;;;;;1.51;56.30;100606.36;2221353;80;20975;-82
2022/01/24 13:55:23;;;;;;;42.30;23.80;;;;;;;1.52;56.20;100610.33;2222697;80;21018;-83
2022/01/24 13:58:24;;;;;;;43.60;23.40;;;;;;;1.46;56.48;100604.72;2220118;80;21018;-83
2022/01/24 14:01:24;;;;;;;53.63;27.57;;;;;;;1.40;56.64;100609.80;2227209;80;21002;-81
2022/01/24 14:04:25;;;;;;;54.07;26.40;;;;;;;1.38;56.94;100613.93;2221782;80;20974;-80
2022/01/24 14:07:25;;;;;;;46.27;24.87;;;;;;;1.38;57.42;100621.65;2226209;80;21749;-79
2022/01/24 14:10:26;;;;;;;44.20;24.70;;;;;;;1.34;56.91;100613.19;2218567;80;21652;-83
2022/01/24 14:13:26;;;;;;;45.47;25.03;;;;;;;1.24;56.44;100618.92;2142137;82;20951;-83
2022/01/24 14:16:40;;;;;;;44.67;24.27;;;;;;;1.15;56.94;100616.03;2138338;83;21007;-83
2022/01/24 14:19:29;;;;;;;42.87;23.70;;;;;;;1.07;57.22;100615.44;2210144;80;20972;-82
2022/01/24 14:22:30;;;;;;;45.77;25.13;;;;;;;1.00;57.45;100614.46;2218643;79;20987;-82
2022/01/24 14:25:31;;;;;;;41.80;22.00;;;;;;;0.94;57.74;100608.84;2218408;79;20987;-82
2022/01/24 14:28:32;;;;;;;46.53;24.27;;;;;;;0.93;57.57;100613.09;2220137;80;21390;-82
2022/01/24 14:31:32;;;;;;;52.27;28.93;;;;;;;0.83;57.89;100605.80;2218396;80;20990;-81
2022/01/24 14:34:33;;;;;;;50.33;26.40;;;;;;;0.79;58.26;100598.23;2221877;80;20963;-81
2022/01/24 14:37:33;;;;;;;41.63;23.47;;;;;;;0.77;58.40;100593.36;2225714;80;20995;-81
2022/01/24 14:40:34;;;;;;;53.10;26.83;;;;;;;0.76;58.42;100600.95;2224007;80;20992;-81
2022/01/24 14:46:57;;;;;;;76.23;34.03;;;;;;;0.69;58.62;100592.25;2223449;80;21043;-83
2022/01/24 14:49:55;;;;;;;63.00;29.30;;;;;;;0.71;58.95;100598.41;2168022;82;21074;-82
2022/01/24 14:52:56;;;;;;;74.03;31.73;;;;;;;0.69;58.90;100596.11;2129977;83;20999;-82
2022/01/24 14:55:56;;;;;;;64.47;29.73;;;;;;;0.63;58.93;100589.72;2167702;82;21006;-79
2022/01/24 14:58:57;;;;;;;82.87;32.00;;;;;;;0.61;59.05;100589.09;2129876;83;21019;-82
2022/01/24 15:01:57;;;;;;;71.63;31.07;;;;;;;0.56;59.31;100597.72;2167975;81;20994;-82
2022/01/24 15:04:58;;;;;;;64.73;29.23;;;;;;;0.52;59.30;100601.20;2131693;83;20990;-83
2022/01/24 15:07:59;;;;;;;56.73;27.77;;;;;;;0.48;59.48;100601.35;2166778;81;21014;-81
2022/01/24 15:11:00;;;;;;;59.97;28.17;;;;;;;0.44;59.41;100602.27;2126941;83;21338;-82